Main page
METAR-TAF:

METAR-TAF

Airports :

Pápa, Hungary

latitude: 47-12N, longitude: 017-30E, elevation: 145 m

Current weather observation

The report was made 43 minutes ago, at 21:45 UTC
Calm wind
Temperature -3°C
Humidity 93%
Pressure 1027 hPa
Visibility: 6000 m

METAR: LHPA 182145Z 00000KT 6000 NSC M03/M04 Q1027 NOSIG RMK WHT

Time: 23:28 (22:28 UTC)

Forecast

The report was made 5 hours and 13 minutes ago, at 17:15 UTC
Forecast valid from 18 at 18 UTC to 19 at 18 UTC
Wind 6 kt from the North/Northwest
Visibility 10 km or more
Broken clouds at a height of 3000 ft
Becoming
from 18 at 19 UTC to 18 at 22 UTC
Visibility 10 km or more
no clouds below 1500 m and no cumulonimbus
Temporary
from 18 at 22 UTC to 19 at 06 UTC
Wind 3 kt from variable directions
Visibility: 5000 m
mist

TAF: LHPA 181715Z 1818/1918 33006KT 9999 BKN030 BECMG 1819/1822 CAVOK TEMPO 1822/1906 VRB03KT 5000 BR NSC

Weather observations and forecasts of more than 4000 airports (METAR and TAF reports).

The available stations are represented by yellow and red dots on the map.

Hover mouse over dot to see the name of the station.

Then click to see weather observations and forecasts.

To change the map : click on the green buttons with a black cross to zoom in, on the green button with a dash to zoom out, or on the green arrows for adjacent maps.


METAR-TAF: